Waarschuwingen Drenthe

Code Groen. Er zijn momenteel geen waarschuwingen van kracht.

Bron: KNMI



Webcam op het Zuiden Meer informatie Webcam op het Zuiden


Webcam op het Westen Meer informatie Webcam op het Westen


Onweer radar Meer informatie blitzortung!


Regen radar  rain snow radar


Lokaal brand risico:
CBI


Regionaal brand risico: Meer informatie


Lokaal brand risico:
Gebaseerd op actuele waarde
CBI


Bezoek ook deze websites:

Template documentation
and downloads

And another site



METAR rapporten vliegvelden

   
ETWM - Meppen, Germany
Afstand tot: O 29 km
Gewijzigd: 27-11-2022 16:20
  
  
   Wind: OZO 7.4 km/h
Wind: OZO 7.4 km/h
Temperatuur: 6°C
Voelt als: 4°C
Dauwpunt: 4°C
Vochtigheid: 87%
Barometer: 1017 hPa
ETWM 271520Z AUTO 12004KT //// // ////// 06/04 Q1017 ///
EHGG - Groningen/Eelde, Netherlands
Afstand tot: NNW 47 km
Gewijzigd: 27-11-2022 16:55
Lichte (mot)regen, Bewolking  
Lichte (mot)regen, Bewolking  
   Wind: ZZO 14.8 km/h
Wind: ZZO 14.8 km/h
Temperatuur: 6°C
Voelt als: 3°C
Dauwpunt: 4°C
Vochtigheid: 87%
Barometer: 1015 hPa
Bewolking: Bewolking
Zicht: meer dan 10 km
Bewolking: Gedeeltelijk bewolkt 2700 ft,
Bewolking 3000 ft
EHGG 271555Z AUTO 15008KT 110V180 9999 -DZ SCT027 OVC030 06/04 Q1015 NOSIG
EDDG - Muenster/Osnabru, Germany
Afstand tot: ZO 87 km
Gewijzigd: 27-11-2022 16:50
Wat regen mogelijk, Gedeeltelijk bewolkt  
Wat regen mogelijk, Gedeeltelijk bewolkt  
   Wind: ZO 5.6 km/h
Wind: ZO 5.6 km/h
Temperatuur: 6°C
Voelt als: 5°C
Dauwpunt: 4°C
Vochtigheid: 87%
Barometer: 1017 hPa
Bewolking: Gedeeltelijk bewolkt
Zicht: meer dan 10 km
Bewolking: Gedeeltelijk bewolkt
EDDG 271550Z AUTO 13003KT 090V160 9999 -RA NSC 06/04 Q1017 NOSIG
EHLW - Leeuwarden Rnlaf, Netherlands
Afstand tot: NW 93 km
Gewijzigd: 27-11-2022 17:05
Motregen, Bewolking  
Motregen, Bewolking  
   Wind: ZZO 14.8 km/h
Wind: ZZO 14.8 km/h
Temperatuur: 6°C
Voelt als: 3°C
Dauwpunt: 5°C
Vochtigheid: 93%
Barometer: 1014 hPa
Bewolking: Bewolking
Zicht: meer dan 10 km
Bewolking: Bewolking 1500 ft
EHLW 271605Z AUTO 16008KT 130V210 9999 DZ OVC015 06/05 Q1014 WHT
ETNT - Wittmundhaven(Ga, Germany
Afstand tot: NNO 100 km
Gewijzigd: 27-11-2022 16:20
  
  
   Wind: ZZO 13 km/h
Wind: ZZO 13 km/h
Temperatuur: 6°C
Voelt als: 3°C
Dauwpunt: 4°C
Vochtigheid: 87%
Barometer: 1017 hPa
ETNT 271520Z AUTO 15007KT //// // ////// 06/04 Q1017 ///
ETND - Diepholz (ger-Af, Germany
Afstand tot: O 104 km
Gewijzigd: 25-11-2022 11:20
Verouderd
Grotendeels bewolkt  
Grotendeels bewolkt  
   Wind: Zuiden 13 km/h
Wind: Zuiden 13 km/h
Temperatuur: 9°C
Voelt als: 7°C
Dauwpunt: 8°C
Vochtigheid: 94%
Barometer: 1013 hPa
Bewolking: Grotendeels bewolkt
Zicht: meer dan 10 km
Bewolking: Licht bewolkt 1600 ft,
Grotendeels bewolkt 4600 ft
ETND 251020Z 18007KT 9999 FEW016 BKN046 09/08 Q1013 BLU
ETNT - Wittmundhaven(Ga, Germany
Afstand tot: NNO 102 km
Gewijzigd: 27-11-2022 16:20
  
  
   Wind: ZZO 13 km/h
Wind: ZZO 13 km/h
Temperatuur: 6°C
Voelt als: 3°C
Dauwpunt: 4°C
Vochtigheid: 87%
Barometer: 1017 hPa
ETNT 271520Z AUTO 15007KT //// // ////// 06/04 Q1017 ///
EHDL - Deelen Rnlafb, Netherlands
Afstand tot: ZW 103 km
Gewijzigd: 27-11-2022 16:55
Lichte (mot)regen, Bewolking  
Lichte (mot)regen, Bewolking  
   Wind: ZZO 13 km/h
Wind: ZZO 13 km/h
Temperatuur: 7°C
Voelt als: 4°C
Dauwpunt: 5°C
Vochtigheid: 87%
Barometer: 1015 hPa
Bewolking: Bewolking
Zicht: meer dan 10 km
Bewolking: Licht bewolkt 2000 ft,
Bewolking 2700 ft
EHDL 271555Z AUTO 15007KT 100V200 9999 -DZ FEW020 OVC027 07/05 Q1015 BLU
EHMA - Awg-1 Sea, Netherlands
Afstand tot: NW 105 km
Gewijzigd: 27-11-2022 16:55
Bewolking  
Bewolking  
   Wind: Zuiden 33.3 km/h
Wind: Zuiden 33.3 km/h
Temperatuur: 7°C
Voelt als: 2°C
Dauwpunt: 5°C
Vochtigheid: 87%
Barometer: 1014 hPa
Bewolking: Bewolking
Zicht: meer dan 10 km
Bewolking: Bewolking 1200 ft
EHMA 271555Z AUTO 17018KT 9999 OVC012 07/05 Q1014
EDDW - Bremen, Germany
Afstand tot: ONO 135 km
Gewijzigd: 27-11-2022 16:50
Wat regen mogelijk, Licht bewolkt  
Wat regen mogelijk, Licht bewolkt  
   Wind: OZO 16.7 km/h
Wind: OZO 16.7 km/h
Temperatuur: 6°C
Voelt als: 3°C
Dauwpunt: 4°C
Vochtigheid: 87%
Barometer: 1018 hPa
Bewolking: Licht bewolkt
Zicht: meer dan 10 km
Bewolking: Licht bewolkt 2800 ft
EDDW 271550Z AUTO 12009KT 9999 -RA FEW028 06/04 Q1018 NOSIG
EHVL - Vlieland Island, Netherlands
Afstand tot: WNW 138 km
Gewijzigd: 27-11-2022 16:55
Nevel, Bewolking  
Nevel, Bewolking  
   Wind: Zuiden 24.1 km/h
Wind: Zuiden 24.1 km/h
Temperatuur: 7°C
Voelt als: 3°C
Dauwpunt: 6°C
Vochtigheid: 93%
Barometer: 1013 hPa
Bewolking: Bewolking
Zicht: 5 km
Bewolking: Gedeeltelijk bewolkt 300 ft,
Grotendeels bewolkt 400 ft,
Bewolking 600 ft
EHVL 271555Z AUTO 17013KT 5000 BR SCT003 BKN004 OVC006 07/06 Q1013 YLO
EDLV - Niederrhein, Germany
Afstand tot: ZZW 139 km
Gewijzigd: 27-11-2022 16:50
Wat regen mogelijk, Grotendeels bewolkt  
Wat regen mogelijk, Grotendeels bewolkt  
   Wind: ZZO 14.8 km/h
Wind: ZZO 14.8 km/h
Temperatuur: 8°C
Voelt als: 6°C
Dauwpunt: 5°C
Vochtigheid: 82%
Barometer: 1016 hPa
Bewolking: Grotendeels bewolkt
Zicht: meer dan 10 km
Bewolking: Grotendeels bewolkt 4500 ft
EDLV 271550Z 15008KT 9999 -RA BKN045 08/05 Q1016
EHKD - De Kooy (navy), Netherlands
Afstand tot: W 144 km
Gewijzigd: 27-11-2022 16:55
Grotendeels bewolkt  
Grotendeels bewolkt  
   Wind: Zuiden 20.4 km/h
Wind: Zuiden 20.4 km/h
Temperatuur: 7°C
Voelt als: 3°C
Dauwpunt: 6°C
Vochtigheid: 93%
Barometer: 1013 hPa
Bewolking: Grotendeels bewolkt
Zicht: meer dan 10 km
Bewolking: Grotendeels bewolkt 600 ft
EHKD 271555Z AUTO 17011KT 9999 BKN006 07/06 Q1013 YLO TEMPO 3000 DZRA FEW003 BKN004 OVC006
EDLW - Dortmund/Wickede, Germany
Afstand tot: ZZO 150 km
Gewijzigd: 27-11-2022 16:50
Licht bewolkt  
Licht bewolkt  
   Wind: ZZO 18.5 km/h
Wind: ZZO 18.5 km/h
Temperatuur: 9°C
Voelt als: 6°C
Dauwpunt: 1°C
Vochtigheid: 58%
Barometer: 1017 hPa
Bewolking: Licht bewolkt
Zicht: meer dan 10 km
Bewolking: Licht bewolkt 1800 ft
EDLW 271550Z 15010KT 9999 FEW018 09/01 Q1017
EHVK - Volkel Rnlafb, Netherlands
Afstand tot: ZZW 149 km
Gewijzigd: 27-11-2022 16:55
Motregen, Bewolking  
Motregen, Bewolking  
   Wind: ZO 14.8 km/h
Wind: ZO 14.8 km/h
Temperatuur: 8°C
Voelt als: 6°C
Dauwpunt: 5°C
Vochtigheid: 82%
Barometer: 1015 hPa
Bewolking: Bewolking
Zicht: meer dan 10 km
Bewolking: Bewolking 3000 ft
EHVK 271555Z AUTO 14008KT 120V180 9999 DZ OVC030 08/05 Q1015 BLU
EDLW - Dortmund/Wickede, Germany
Afstand tot: ZZO 150 km
Gewijzigd: 27-11-2022 16:50
Licht bewolkt  
Licht bewolkt  
   Wind: ZZO 18.5 km/h
Wind: ZZO 18.5 km/h
Temperatuur: 9°C
Voelt als: 6°C
Dauwpunt: 1°C
Vochtigheid: 58%
Barometer: 1017 hPa
Bewolking: Licht bewolkt
Zicht: meer dan 10 km
Bewolking: Licht bewolkt 1800 ft
EDLW 271550Z 15010KT 9999 FEW018 09/01 Q1017
EHMG - L9-Ff-1 Sea, Netherlands
Afstand tot: NW 155 km
Gewijzigd: 27-11-2022 16:55
Bewolking  
Bewolking  
   Wind: Zuiden 42.6 km/h
Wind: Zuiden 42.6 km/h
Temperatuur: 8°C
Voelt als: 3°C
Dauwpunt: 7°C
Vochtigheid: 93%
Barometer: 1014 hPa
Bewolking: Bewolking
Zicht: meer dan 10 km
Bewolking: Gedeeltelijk bewolkt 400 ft,
Bewolking 500 ft
EHMG 271555Z AUTO 18023KT 9999 SCT004 OVC005 08/07 Q1014
ETHB - Buckeburg(Ger-Ar, Germany
Afstand tot: OZO 161 km
Gewijzigd: 27-11-2022 16:20
Bewolking  
Bewolking  
   Wind: ZZO 22.2 km/h
Wind: ZZO 22.2 km/h
Temperatuur: 9°C
Voelt als: 6°C
Dauwpunt: 1°C
Vochtigheid: 58%
Barometer: 1018 hPa
Bewolking: Bewolking
Zicht: meer dan 10 km
Bewolking: Bewolking 7500 ft
ETHB 271520Z 16012KT 9999 OVC075 09/01 Q1018 BLU
ETMN - Nordholz (ger-Na, Germany
Afstand tot: NO 164 km
Gewijzigd: 27-11-2022 16:20
Wat regen mogelijk, Grotendeels bewolkt  
Wat regen mogelijk, Grotendeels bewolkt  
   Wind: ZO 7.4 km/h
Wind: ZO 7.4 km/h
Temperatuur: 5°C
Voelt als: 3°C
Dauwpunt: 4°C
Vochtigheid: 93%
Barometer: 1018 hPa
Bewolking: Grotendeels bewolkt
Zicht: 9 km
Bewolking: Grotendeels bewolkt 4200 ft
ETMN 271520Z 14004KT 9000 -RA BKN042 05/04 Q1018 RERA BLU
EDDL - Duesseldorf, Germany
Afstand tot: Z 165 km
Gewijzigd: 27-11-2022 16:50
Wat regen mogelijk, Gedeeltelijk bewolkt  
Wat regen mogelijk, Gedeeltelijk bewolkt  
   Wind: ZO 31.5 km/h
Wind: ZO 31.5 km/h
Temperatuur: 9°C
Voelt als: 5°C
Dauwpunt: 4°C
Vochtigheid: 71%
Barometer: 1016 hPa
Bewolking: Gedeeltelijk bewolkt
Zicht: meer dan 10 km
Bewolking: Gedeeltelijk bewolkt
EDDL 271550Z AUTO 14017KT 9999 -RA NSC 09/04 Q1016 TEMPO 15015G25KT
EDLN - Monchengladbach, Germany
Afstand tot: Z 174 km
Gewijzigd: 27-11-2022 16:50
Helder  
Helder  
   Wind: ZZO 13 km/h
Wind: ZZO 13 km/h
Temperatuur: 8°C
Voelt als: 6°C
Dauwpunt: 4°C
Vochtigheid: 76%
Barometer: 1017 hPa
Zicht: meer dan 10 km
Bewolking: Helder
EDLN 271550Z 16007KT CAVOK 08/04 Q1017

Script ontwikkeld door  Saratoga-weather.org Aangepast voor de template door  Weerstation Leuven

U vindt ons ook hier:

Het Weer Aktueel

European Weather Network

Weather Underground

Wetterpage 24

Apparatuur in gebruik:

Weerstation
Davis VP2

Weerprogramma
Meteohub

Hardware
RaspberryPI, Wireless Weather Envoy, MeteoStick, TP-Link MR3020

Leverancier
Weerhuisje.nl weerstations

Davis VP2

Meteohub

RaspberryPI, Wireless Weather Envoy, MeteoStick, TP-Link MR3020

Weerhuisje.nl weerstations